sensor_id;sensor_type;location;lat;lon;timestamp;temperature;humidity
10051;DHT22;5065;46.942;7.432;2023-07-13T00:02:18;21.00;99.90
10051;DHT22;5065;46.942;7.432;2023-07-13T00:04:46;21.20;99.90
10051;DHT22;5065;46.942;7.432;2023-07-13T00:07:13;21.20;99.90
10051;DHT22;5065;46.942;7.432;2023-07-13T00:09:41;21.30;99.90
10051;DHT22;5065;46.942;7.432;2023-07-13T00:12:24;21.40;99.90
10051;DHT22;5065;46.942;7.432;2023-07-13T00:14:53;21.40;99.90
10051;DHT22;5065;46.942;7.432;2023-07-13T00:17:20;21.40;99.90
10051;DHT22;5065;46.942;7.432;2023-07-13T00:19:47;21.40;99.90
10051;DHT22;5065;46.942;7.432;2023-07-13T00:22:14;21.40;99.90
10051;DHT22;5065;46.942;7.432;2023-07-13T00:24:41;21.40;99.90
10051;DHT22;5065;46.942;7.432;2023-07-13T00:27:08;21.40;99.90
10051;DHT22;5065;46.942;7.432;2023-07-13T00:29:36;21.50;99.90
10051;DHT22;5065;46.942;7.432;2023-07-13T00:32:06;21.50;99.90
10051;DHT22;5065;46.942;7.432;2023-07-13T00:34:35;21.50;99.90
10051;DHT22;5065;46.942;7.432;2023-07-13T00:37:02;21.40;99.90
10051;DHT22;5065;46.942;7.432;2023-07-13T00:39:31;21.40;99.90
10051;DHT22;5065;46.942;7.432;2023-07-13T00:41:58;21.40;99.90
10051;DHT22;5065;46.942;7.432;2023-07-13T00:44:25;21.40;99.90
10051;DHT22;5065;46.942;7.432;2023-07-13T00:46:52;21.40;99.90
10051;DHT22;5065;46.942;7.432;2023-07-13T00:49:25;21.30;99.90
10051;DHT22;5065;46.942;7.432;2023-07-13T00:51:55;21.40;99.90
10051;DHT22;5065;46.942;7.432;2023-07-13T00:54:26;21.50;99.90
10051;DHT22;5065;46.942;7.432;2023-07-13T00:56:57;21.30;99.90
10051;DHT22;5065;46.942;7.432;2023-07-13T00:59:25;21.50;99.90
10051;DHT22;5065;46.942;7.432;2023-07-13T01:01:53;21.50;99.90
10051;DHT22;5065;46.942;7.432;2023-07-13T01:04:23;21.40;99.90
10051;DHT22;5065;46.942;7.432;2023-07-13T01:06:51;21.30;99.90
10051;DHT22;5065;46.942;7.432;2023-07-13T01:09:19;21.20;99.90
10051;DHT22;5065;46.942;7.432;2023-07-13T01:11:47;21.10;99.90
10051;DHT22;5065;46.942;7.432;2023-07-13T01:14:14;21.00;99.90
10051;DHT22;5065;46.942;7.432;2023-07-13T01:16:44;21.00;99.90
10051;DHT22;5065;46.942;7.432;2023-07-13T01:19:25;21.00;99.90
10051;DHT22;5065;46.942;7.432;2023-07-13T01:22:04;21.00;99.90
10051;DHT22;5065;46.942;7.432;2023-07-13T01:24:35;21.00;99.90
10051;DHT22;5065;46.942;7.432;2023-07-13T01:27:03;21.10;99.90
10051;DHT22;5065;46.942;7.432;2023-07-13T01:29:33;21.10;99.90
10051;DHT22;5065;46.942;7.432;2023-07-13T01:32:00;21.10;99.90
10051;DHT22;5065;46.942;7.432;2023-07-13T01:34:27;21.10;99.90
10051;DHT22;5065;46.942;7.432;2023-07-13T01:36:55;21.00;99.90
10051;DHT22;5065;46.942;7.432;2023-07-13T01:39:23;21.00;99.90
10051;DHT22;5065;46.942;7.432;2023-07-13T01:41:51;20.90;99.90
10051;DHT22;5065;46.942;7.432;2023-07-13T01:44:18;20.90;99.90
10051;DHT22;5065;46.942;7.432;2023-07-13T01:46:45;20.90;99.90
10051;DHT22;5065;46.942;7.432;2023-07-13T01:49:12;20.90;99.90
10051;DHT22;5065;46.942;7.432;2023-07-13T01:51:39;20.90;99.90
10051;DHT22;5065;46.942;7.432;2023-07-13T01:54:06;20.90;99.90
10051;DHT22;5065;46.942;7.432;2023-07-13T01:56:35;20.90;99.90
10051;DHT22;5065;46.942;7.432;2023-07-13T01:59:02;20.90;99.90
10051;DHT22;5065;46.942;7.432;2023-07-13T02:01:29;20.90;99.90
10051;DHT22;5065;46.942;7.432;2023-07-13T02:03:56;20.80;99.90
10051;DHT22;5065;46.942;7.432;2023-07-13T02:06:23;20.80;99.90
10051;DHT22;5065;46.942;7.432;2023-07-13T02:08:50;20.80;99.90
10051;DHT22;5065;46.942;7.432;2023-07-13T02:11:17;20.90;99.90
10051;DHT22;5065;46.942;7.432;2023-07-13T02:13:46;20.90;99.90
10051;DHT22;5065;46.942;7.432;2023-07-13T02:16:13;20.90;99.90
10051;DHT22;5065;46.942;7.432;2023-07-13T02:18:40;20.90;99.90
10051;DHT22;5065;46.942;7.432;2023-07-13T02:21:07;20.90;99.90
10051;DHT22;5065;46.942;7.432;2023-07-13T02:23:35;20.90;99.90
10051;DHT22;5065;46.942;7.432;2023-07-13T02:26:05;20.80;99.90
10051;DHT22;5065;46.942;7.432;2023-07-13T02:28:32;20.90;99.90
10051;DHT22;5065;46.942;7.432;2023-07-13T02:31:06;20.80;99.90
10051;DHT22;5065;46.942;7.432;2023-07-13T02:33:33;20.80;99.90
10051;DHT22;5065;46.942;7.432;2023-07-13T02:36:01;20.80;99.90
10051;DHT22;5065;46.942;7.432;2023-07-13T02:38:28;20.90;99.90
10051;DHT22;5065;46.942;7.432;2023-07-13T02:40:55;20.80;99.90
10051;DHT22;5065;46.942;7.432;2023-07-13T02:43:22;20.80;99.90
10051;DHT22;5065;46.942;7.432;2023-07-13T02:45:49;20.80;99.90
10051;DHT22;5065;46.942;7.432;2023-07-13T02:48:18;20.90;99.90
10051;DHT22;5065;46.942;7.432;2023-07-13T02:50:45;20.80;99.90
10051;DHT22;5065;46.942;7.432;2023-07-13T02:53:12;20.90;99.90
10051;DHT22;5065;46.942;7.432;2023-07-13T02:55:39;20.90;99.90
10051;DHT22;5065;46.942;7.432;2023-07-13T02:58:13;20.90;99.90
10051;DHT22;5065;46.942;7.432;2023-07-13T03:00:42;20.90;99.90
10051;DHT22;5065;46.942;7.432;2023-07-13T03:03:10;20.80;99.90
10051;DHT22;5065;46.942;7.432;2023-07-13T03:05:41;20.90;99.90
10051;DHT22;5065;46.942;7.432;2023-07-13T03:08:09;20.90;99.90
10051;DHT22;5065;46.942;7.432;2023-07-13T03:10:36;20.80;99.90
10051;DHT22;5065;46.942;7.432;2023-07-13T03:13:05;20.80;99.90
10051;DHT22;5065;46.942;7.432;2023-07-13T03:15:32;20.80;99.90
10051;DHT22;5065;46.942;7.432;2023-07-13T03:18:00;20.80;99.90
10051;DHT22;5065;46.942;7.432;2023-07-13T03:20:27;20.80;99.90
10051;DHT22;5065;46.942;7.432;2023-07-13T03:22:55;20.70;99.90
10051;DHT22;5065;46.942;7.432;2023-07-13T03:25:22;20.70;99.90
10051;DHT22;5065;46.942;7.432;2023-07-13T03:27:50;20.70;99.90
10051;DHT22;5065;46.942;7.432;2023-07-13T03:30:17;20.70;99.90
10051;DHT22;5065;46.942;7.432;2023-07-13T03:32:44;20.70;99.90
10051;DHT22;5065;46.942;7.432;2023-07-13T03:35:11;20.70;99.90
10051;DHT22;5065;46.942;7.432;2023-07-13T03:37:38;20.80;99.90
10051;DHT22;5065;46.942;7.432;2023-07-13T03:40:10;20.80;99.90
10051;DHT22;5065;46.942;7.432;2023-07-13T03:42:37;20.80;99.90
10051;DHT22;5065;46.942;7.432;2023-07-13T03:45:05;20.80;99.90
10051;DHT22;5065;46.942;7.432;2023-07-13T03:47:33;20.70;99.90
10051;DHT22;5065;46.942;7.432;2023-07-13T03:50:00;20.70;99.90
10051;DHT22;5065;46.942;7.432;2023-07-13T03:52:27;20.70;99.90
10051;DHT22;5065;46.942;7.432;2023-07-13T03:54:54;20.70;99.90
10051;DHT22;5065;46.942;7.432;2023-07-13T03:57:23;20.70;99.90
10051;DHT22;5065;46.942;7.432;2023-07-13T03:59:50;20.70;99.90
10051;DHT22;5065;46.942;7.432;2023-07-13T04:02:17;20.70;99.90
10051;DHT22;5065;46.942;7.432;2023-07-13T04:04:44;20.70;99.90
10051;DHT22;5065;46.942;7.432;2023-07-13T04:07:11;20.70;99.90
10051;DHT22;5065;46.942;7.432;2023-07-13T04:09:38;20.70;99.90
10051;DHT22;5065;46.942;7.432;2023-07-13T04:12:06;20.60;99.90
10051;DHT22;5065;46.942;7.432;2023-07-13T04:14:35;20.60;99.90
10051;DHT22;5065;46.942;7.432;2023-07-13T04:17:02;20.60;99.90
10051;DHT22;5065;46.942;7.432;2023-07-13T04:19:29;20.60;99.90
10051;DHT22;5065;46.942;7.432;2023-07-13T04:21:56;20.60;99.90
10051;DHT22;5065;46.942;7.432;2023-07-13T04:24:24;20.60;99.90
10051;DHT22;5065;46.942;7.432;2023-07-13T04:26:51;20.60;99.90
10051;DHT22;5065;46.942;7.432;2023-07-13T04:29:18;20.50;99.90
10051;DHT22;5065;46.942;7.432;2023-07-13T04:31:47;20.50;99.90
10051;DHT22;5065;46.942;7.432;2023-07-13T04:34:14;20.60;99.90
10051;DHT22;5065;46.942;7.432;2023-07-13T04:36:42;20.60;99.90
10051;DHT22;5065;46.942;7.432;2023-07-13T04:39:09;20.60;99.90
10051;DHT22;5065;46.942;7.432;2023-07-13T04:41:36;20.60;99.90
10051;DHT22;5065;46.942;7.432;2023-07-13T04:44:04;20.70;99.90
10051;DHT22;5065;46.942;7.432;2023-07-13T04:46:31;20.60;99.90
10051;DHT22;5065;46.942;7.432;2023-07-13T04:49:00;20.60;99.90
10051;DHT22;5065;46.942;7.432;2023-07-13T04:51:29;20.50;99.90
10051;DHT22;5065;46.942;7.432;2023-07-13T04:53:57;20.50;99.90
10051;DHT22;5065;46.942;7.432;2023-07-13T04:56:24;20.50;99.90
10051;DHT22;5065;46.942;7.432;2023-07-13T04:58:51;20.40;99.90
10051;DHT22;5065;46.942;7.432;2023-07-13T05:01:18;20.30;99.90
10051;DHT22;5065;46.942;7.432;2023-07-13T05:03:45;20.20;99.90
10051;DHT22;5065;46.942;7.432;2023-07-13T05:06:14;20.30;99.90
10051;DHT22;5065;46.942;7.432;2023-07-13T05:08:41;20.30;99.90
10051;DHT22;5065;46.942;7.432;2023-07-13T05:11:08;20.30;99.90
10051;DHT22;5065;46.942;7.432;2023-07-13T05:13:35;20.40;99.90
10051;DHT22;5065;46.942;7.432;2023-07-13T05:16:04;20.40;99.90
10051;DHT22;5065;46.942;7.432;2023-07-13T05:18:33;20.40;99.90
10051;DHT22;5065;46.942;7.432;2023-07-13T05:21:02;20.40;99.90
10051;DHT22;5065;46.942;7.432;2023-07-13T05:23:31;20.40;99.90
10051;DHT22;5065;46.942;7.432;2023-07-13T05:25:59;20.40;99.90
10051;DHT22;5065;46.942;7.432;2023-07-13T05:28:27;20.50;99.90
10051;DHT22;5065;46.942;7.432;2023-07-13T05:30:54;20.50;99.90
10051;DHT22;5065;46.942;7.432;2023-07-13T05:33:22;20.50;99.90
10051;DHT22;5065;46.942;7.432;2023-07-13T05:35:49;20.40;99.90
10051;DHT22;5065;46.942;7.432;2023-07-13T05:38:16;20.50;99.90
10051;DHT22;5065;46.942;7.432;2023-07-13T05:40:45;20.40;99.90
10051;DHT22;5065;46.942;7.432;2023-07-13T05:43:13;20.30;99.90
10051;DHT22;5065;46.942;7.432;2023-07-13T05:45:41;20.40;99.90
10051;DHT22;5065;46.942;7.432;2023-07-13T05:48:08;20.40;99.90
10051;DHT22;5065;46.942;7.432;2023-07-13T05:50:36;20.40;99.90
10051;DHT22;5065;46.942;7.432;2023-07-13T05:53:03;20.30;99.90
10051;DHT22;5065;46.942;7.432;2023-07-13T05:55:30;20.30;99.90
10051;DHT22;5065;46.942;7.432;2023-07-13T05:58:00;20.30;99.90
10051;DHT22;5065;46.942;7.432;2023-07-13T06:00:27;20.30;99.90
10051;DHT22;5065;46.942;7.432;2023-07-13T06:02:56;20.30;99.90
10051;DHT22;5065;46.942;7.432;2023-07-13T06:05:24;20.30;99.90
10051;DHT22;5065;46.942;7.432;2023-07-13T06:07:51;20.30;99.90
10051;DHT22;5065;46.942;7.432;2023-07-13T06:10:18;20.30;99.90
10051;DHT22;5065;46.942;7.432;2023-07-13T06:12:45;20.20;99.90
10051;DHT22;5065;46.942;7.432;2023-07-13T06:15:17;20.20;99.90
10051;DHT22;5065;46.942;7.432;2023-07-13T06:17:44;20.20;99.90
10051;DHT22;5065;46.942;7.432;2023-07-13T06:20:12;20.20;99.90
10051;DHT22;5065;46.942;7.432;2023-07-13T06:22:39;20.20;99.90
10051;DHT22;5065;46.942;7.432;2023-07-13T06:25:07;20.20;99.90
10051;DHT22;5065;46.942;7.432;2023-07-13T06:27:34;20.30;99.90
10051;DHT22;5065;46.942;7.432;2023-07-13T06:30:02;20.30;99.90
10051;DHT22;5065;46.942;7.432;2023-07-13T06:32:30;20.30;99.90
10051;DHT22;5065;46.942;7.432;2023-07-13T06:34:58;20.30;99.90
10051;DHT22;5065;46.942;7.432;2023-07-13T06:37:25;20.20;99.90
10051;DHT22;5065;46.942;7.432;2023-07-13T06:39:52;20.30;99.90
10051;DHT22;5065;46.942;7.432;2023-07-13T06:42:19;20.30;99.90
10051;DHT22;5065;46.942;7.432;2023-07-13T06:44:46;20.30;99.90
10051;DHT22;5065;46.942;7.432;2023-07-13T06:47:13;20.40;99.90
10051;DHT22;5065;46.942;7.432;2023-07-13T06:49:42;20.40;99.90
10051;DHT22;5065;46.942;7.432;2023-07-13T06:52:09;20.40;99.90
10051;DHT22;5065;46.942;7.432;2023-07-13T06:54:36;20.50;99.90
10051;DHT22;5065;46.942;7.432;2023-07-13T06:57:03;20.50;99.90
10051;DHT22;5065;46.942;7.432;2023-07-13T06:59:31;20.50;99.90
10051;DHT22;5065;46.942;7.432;2023-07-13T07:01:58;20.50;99.90
10051;DHT22;5065;46.942;7.432;2023-07-13T07:04:25;20.50;99.90
10051;DHT22;5065;46.942;7.432;2023-07-13T07:06:54;20.50;99.90
10051;DHT22;5065;46.942;7.432;2023-07-13T07:09:21;20.50;99.90
10051;DHT22;5065;46.942;7.432;2023-07-13T07:11:48;20.50;99.90
10051;DHT22;5065;46.942;7.432;2023-07-13T07:14:15;20.60;99.90
10051;DHT22;5065;46.942;7.432;2023-07-13T07:16:43;20.60;99.90
10051;DHT22;5065;46.942;7.432;2023-07-13T07:19:10;20.50;99.90
10051;DHT22;5065;46.942;7.432;2023-07-13T07:21:37;20.60;99.90
10051;DHT22;5065;46.942;7.432;2023-07-13T07:24:06;20.50;99.90
10051;DHT22;5065;46.942;7.432;2023-07-13T07:26:33;20.50;99.90
10051;DHT22;5065;46.942;7.432;2023-07-13T07:29:00;20.60;99.90
10051;DHT22;5065;46.942;7.432;2023-07-13T07:31:27;20.60;99.90
10051;DHT22;5065;46.942;7.432;2023-07-13T07:33:55;20.50;99.90
10051;DHT22;5065;46.942;7.432;2023-07-13T07:36:22;20.50;99.90
10051;DHT22;5065;46.942;7.432;2023-07-13T07:38:49;20.50;99.90
10051;DHT22;5065;46.942;7.432;2023-07-13T07:41:17;20.50;99.90
10051;DHT22;5065;46.942;7.432;2023-07-13T07:43:44;20.50;99.90
10051;DHT22;5065;46.942;7.432;2023-07-13T07:46:12;20.40;99.90
10051;DHT22;5065;46.942;7.432;2023-07-13T07:48:39;20.40;99.90
10051;DHT22;5065;46.942;7.432;2023-07-13T07:51:06;20.40;99.90
10051;DHT22;5065;46.942;7.432;2023-07-13T07:53:33;20.50;99.90
10051;DHT22;5065;46.942;7.432;2023-07-13T07:56:00;20.50;99.90
10051;DHT22;5065;46.942;7.432;2023-07-13T07:58:29;20.50;99.90
10051;DHT22;5065;46.942;7.432;2023-07-13T08:01:02;20.60;99.90
10051;DHT22;5065;46.942;7.432;2023-07-13T08:03:29;20.70;99.90
10051;DHT22;5065;46.942;7.432;2023-07-13T08:05:56;20.80;99.90
10051;DHT22;5065;46.942;7.432;2023-07-13T08:08:24;20.90;99.90
10051;DHT22;5065;46.942;7.432;2023-07-13T08:10:51;21.00;99.90
10051;DHT22;5065;46.942;7.432;2023-07-13T08:13:19;21.20;99.90
10051;DHT22;5065;46.942;7.432;2023-07-13T08:15:47;21.30;99.90
10051;DHT22;5065;46.942;7.432;2023-07-13T08:18:15;21.40;99.90
10051;DHT22;5065;46.942;7.432;2023-07-13T08:20:42;21.50;99.90
10051;DHT22;5065;46.942;7.432;2023-07-13T08:23:10;21.60;99.90
10051;DHT22;5065;46.942;7.432;2023-07-13T08:25:37;21.70;99.90
10051;DHT22;5065;46.942;7.432;2023-07-13T08:28:05;21.70;99.90
10051;DHT22;5065;46.942;7.432;2023-07-13T08:30:32;21.70;99.90
10051;DHT22;5065;46.942;7.432;2023-07-13T08:33:00;21.70;99.90
10051;DHT22;5065;46.942;7.432;2023-07-13T08:35:28;21.70;99.90
10051;DHT22;5065;46.942;7.432;2023-07-13T08:37:55;21.70;99.90
10051;DHT22;5065;46.942;7.432;2023-07-13T08:40:25;21.70;99.90
10051;DHT22;5065;46.942;7.432;2023-07-13T08:42:54;21.70;99.90
10051;DHT22;5065;46.942;7.432;2023-07-13T08:45:28;21.70;99.90
10051;DHT22;5065;46.942;7.432;2023-07-13T08:48:03;21.60;99.90
10051;DHT22;5065;46.942;7.432;2023-07-13T08:50:34;21.70;99.90
10051;DHT22;5065;46.942;7.432;2023-07-13T08:53:03;21.70;99.90
10051;DHT22;5065;46.942;7.432;2023-07-13T08:55:33;21.70;99.90
10051;DHT22;5065;46.942;7.432;2023-07-13T08:58:09;21.80;99.90
10051;DHT22;5065;46.942;7.432;2023-07-13T09:00:44;21.80;99.90
10051;DHT22;5065;46.942;7.432;2023-07-13T09:03:21;21.80;99.90
10051;DHT22;5065;46.942;7.432;2023-07-13T09:05:53;21.80;99.90
10051;DHT22;5065;46.942;7.432;2023-07-13T09:08:39;21.80;99.90
10051;DHT22;5065;46.942;7.432;2023-07-13T09:11:19;21.80;99.90
10051;DHT22;5065;46.942;7.432;2023-07-13T09:13:58;21.70;99.90
10051;DHT22;5065;46.942;7.432;2023-07-13T09:16:27;21.70;99.90
10051;DHT22;5065;46.942;7.432;2023-07-13T09:18:59;21.70;99.90
10051;DHT22;5065;46.942;7.432;2023-07-13T09:21:31;21.60;99.90
10051;DHT22;5065;46.942;7.432;2023-07-13T09:24:37;21.60;99.90
10051;DHT22;5065;46.942;7.432;2023-07-13T09:27:14;21.60;99.90
10051;DHT22;5065;46.942;7.432;2023-07-13T09:29:47;21.50;99.90
10051;DHT22;5065;46.942;7.432;2023-07-13T09:32:19;21.40;99.90
10051;DHT22;5065;46.942;7.432;2023-07-13T09:34:51;21.30;99.90
10051;DHT22;5065;46.942;7.432;2023-07-13T09:37:22;21.30;99.90
10051;DHT22;5065;46.942;7.432;2023-07-13T09:39:53;21.30;99.90
10051;DHT22;5065;46.942;7.432;2023-07-13T09:42:22;21.30;99.90
10051;DHT22;5065;46.942;7.432;2023-07-13T09:44:54;21.30;99.90
10051;DHT22;5065;46.942;7.432;2023-07-13T09:47:23;21.30;99.90
10051;DHT22;5065;46.942;7.432;2023-07-13T09:49:56;21.30;99.90
10051;DHT22;5065;46.942;7.432;2023-07-13T09:52:24;21.20;99.90
10051;DHT22;5065;46.942;7.432;2023-07-13T09:54:55;21.20;99.90
10051;DHT22;5065;46.942;7.432;2023-07-13T09:57:27;21.30;99.90
10051;DHT22;5065;46.942;7.432;2023-07-13T09:59:55;21.30;99.90
10051;DHT22;5065;46.942;7.432;2023-07-13T10:02:27;21.40;99.90
10051;DHT22;5065;46.942;7.432;2023-07-13T10:05:00;21.40;99.90
10051;DHT22;5065;46.942;7.432;2023-07-13T10:07:29;21.60;99.90
10051;DHT22;5065;46.942;7.432;2023-07-13T10:09:59;21.70;99.90
10051;DHT22;5065;46.942;7.432;2023-07-13T10:12:29;21.90;99.90
10051;DHT22;5065;46.942;7.432;2023-07-13T10:15:00;22.10;99.90
10051;DHT22;5065;46.942;7.432;2023-07-13T10:17:31;22.30;99.90
10051;DHT22;5065;46.942;7.432;2023-07-13T10:20:00;22.60;99.90
10051;DHT22;5065;46.942;7.432;2023-07-13T10:22:37;22.90;99.90
10051;DHT22;5065;46.942;7.432;2023-07-13T10:25:16;23.30;99.90
10051;DHT22;5065;46.942;7.432;2023-07-13T10:27:45;23.60;99.90
10051;DHT22;5065;46.942;7.432;2023-07-13T10:30:17;23.90;99.90
10051;DHT22;5065;46.942;7.432;2023-07-13T10:32:47;24.20;99.90
10051;DHT22;5065;46.942;7.432;2023-07-13T10:35:15;24.40;99.90
10051;DHT22;5065;46.942;7.432;2023-07-13T10:37:49;24.70;99.90
10051;DHT22;5065;46.942;7.432;2023-07-13T10:40:25;24.80;99.90
10051;DHT22;5065;46.942;7.432;2023-07-13T10:42:56;24.70;99.90
10051;DHT22;5065;46.942;7.432;2023-07-13T10:45:31;24.60;99.90
10051;DHT22;5065;46.942;7.432;2023-07-13T10:48:01;24.50;99.90
10051;DHT22;5065;46.942;7.432;2023-07-13T10:50:30;24.40;99.90
10051;DHT22;5065;46.942;7.432;2023-07-13T10:53:02;24.10;99.90
10051;DHT22;5065;46.942;7.432;2023-07-13T10:55:37;24.00;99.90
10051;DHT22;5065;46.942;7.432;2023-07-13T10:58:13;24.00;99.90
10051;DHT22;5065;46.942;7.432;2023-07-13T11:00:49;24.00;99.90
10051;DHT22;5065;46.942;7.432;2023-07-13T11:03:20;24.10;99.90
10051;DHT22;5065;46.942;7.432;2023-07-13T11:05:50;24.10;99.90
10051;DHT22;5065;46.942;7.432;2023-07-13T11:08:32;24.20;99.90
10051;DHT22;5065;46.942;7.432;2023-07-13T11:11:04;24.20;99.90
10051;DHT22;5065;46.942;7.432;2023-07-13T11:13:58;24.20;99.90
10051;DHT22;5065;46.942;7.432;2023-07-13T11:16:45;24.10;99.90
10051;DHT22;5065;46.942;7.432;2023-07-13T11:19:40;23.80;99.90
10051;DHT22;5065;46.942;7.432;2023-07-13T11:22:14;23.70;99.90
10051;DHT22;5065;46.942;7.432;2023-07-13T11:24:56;23.60;99.90
10051;DHT22;5065;46.942;7.432;2023-07-13T11:27:41;23.60;99.90
10051;DHT22;5065;46.942;7.432;2023-07-13T11:30:34;23.80;99.90
10051;DHT22;5065;46.942;7.432;2023-07-13T11:33:14;23.90;99.90
10051;DHT22;5065;46.942;7.432;2023-07-13T11:35:46;24.00;99.90
10051;DHT22;5065;46.942;7.432;2023-07-13T11:38:19;24.10;99.90
10051;DHT22;5065;46.942;7.432;2023-07-13T11:40:47;24.10;99.90
10051;DHT22;5065;46.942;7.432;2023-07-13T11:43:16;24.30;99.90
10051;DHT22;5065;46.942;7.432;2023-07-13T11:45:44;24.30;99.90
10051;DHT22;5065;46.942;7.432;2023-07-13T11:48:24;24.40;99.90
10051;DHT22;5065;46.942;7.432;2023-07-13T11:50:55;24.50;99.90
10051;DHT22;5065;46.942;7.432;2023-07-13T11:53:29;24.60;99.90
10051;DHT22;5065;46.942;7.432;2023-07-13T11:55:57;24.60;99.90
10051;DHT22;5065;46.942;7.432;2023-07-13T11:58:27;24.60;99.90
10051;DHT22;5065;46.942;7.432;2023-07-13T12:00:59;24.60;99.90
10051;DHT22;5065;46.942;7.432;2023-07-13T12:03:28;24.70;99.90
10051;DHT22;5065;46.942;7.432;2023-07-13T12:05:57;24.70;99.90
10051;DHT22;5065;46.942;7.432;2023-07-13T12:08:26;24.70;99.90
10051;DHT22;5065;46.942;7.432;2023-07-13T12:11:09;24.70;99.90
10051;DHT22;5065;46.942;7.432;2023-07-13T12:13:41;24.80;99.90
10051;DHT22;5065;46.942;7.432;2023-07-13T12:16:25;24.90;99.90
10051;DHT22;5065;46.942;7.432;2023-07-13T12:18:53;24.90;99.90
10051;DHT22;5065;46.942;7.432;2023-07-13T12:21:27;25.00;99.90
10051;DHT22;5065;46.942;7.432;2023-07-13T12:23:56;25.10;99.90
10051;DHT22;5065;46.942;7.432;2023-07-13T12:26:23;25.10;99.90
10051;DHT22;5065;46.942;7.432;2023-07-13T12:28:54;25.10;99.90
10051;DHT22;5065;46.942;7.432;2023-07-13T12:31:31;25.20;99.90
10051;DHT22;5065;46.942;7.432;2023-07-13T12:34:01;25.20;99.90
10051;DHT22;5065;46.942;7.432;2023-07-13T12:36:34;25.30;99.90
10051;DHT22;5065;46.942;7.432;2023-07-13T12:39:10;25.30;99.90
10051;DHT22;5065;46.942;7.432;2023-07-13T12:41:39;25.30;99.90
10051;DHT22;5065;46.942;7.432;2023-07-13T12:44:17;25.30;99.90
10051;DHT22;5065;46.942;7.432;2023-07-13T12:46:54;25.30;99.90
10051;DHT22;5065;46.942;7.432;2023-07-13T12:49:31;25.40;99.90
10051;DHT22;5065;46.942;7.432;2023-07-13T12:52:02;25.30;99.90
10051;DHT22;5065;46.942;7.432;2023-07-13T12:54:30;25.30;99.90
10051;DHT22;5065;46.942;7.432;2023-07-13T12:56:59;25.30;99.90
10051;DHT22;5065;46.942;7.432;2023-07-13T12:59:32;25.30;99.90
10051;DHT22;5065;46.942;7.432;2023-07-13T13:02:22;25.30;99.90
10051;DHT22;5065;46.942;7.432;2023-07-13T13:04:53;25.30;99.90
10051;DHT22;5065;46.942;7.432;2023-07-13T13:07:22;25.30;99.90
10051;DHT22;5065;46.942;7.432;2023-07-13T13:09:50;25.30;99.90
10051;DHT22;5065;46.942;7.432;2023-07-13T13:12:18;25.20;99.90
10051;DHT22;5065;46.942;7.432;2023-07-13T13:14:47;25.20;99.90
10051;DHT22;5065;46.942;7.432;2023-07-13T13:17:19;25.20;99.90
10051;DHT22;5065;46.942;7.432;2023-07-13T13:19:47;25.10;99.90
10051;DHT22;5065;46.942;7.432;2023-07-13T13:22:15;25.10;99.90
10051;DHT22;5065;46.942;7.432;2023-07-13T13:24:43;25.10;99.90
10051;DHT22;5065;46.942;7.432;2023-07-13T13:27:15;25.10;99.90
10051;DHT22;5065;46.942;7.432;2023-07-13T13:29:45;25.10;99.90
10051;DHT22;5065;46.942;7.432;2023-07-13T13:32:14;25.10;99.90
10051;DHT22;5065;46.942;7.432;2023-07-13T13:34:42;25.10;99.90
10051;DHT22;5065;46.942;7.432;2023-07-13T13:37:18;25.10;99.90
10051;DHT22;5065;46.942;7.432;2023-07-13T13:39:46;25.10;99.90
10051;DHT22;5065;46.942;7.432;2023-07-13T13:42:13;25.10;99.90
10051;DHT22;5065;46.942;7.432;2023-07-13T13:44:41;25.10;99.90
10051;DHT22;5065;46.942;7.432;2023-07-13T13:47:30;25.10;99.90
10051;DHT22;5065;46.942;7.432;2023-07-13T13:49:58;25.10;99.90
10051;DHT22;5065;46.942;7.432;2023-07-13T13:52:26;25.10;99.90
10051;DHT22;5065;46.942;7.432;2023-07-13T13:54:53;25.10;99.90
10051;DHT22;5065;46.942;7.432;2023-07-13T13:57:22;25.10;99.90
10051;DHT22;5065;46.942;7.432;2023-07-13T13:59:50;25.10;99.90
10051;DHT22;5065;46.942;7.432;2023-07-13T14:02:25;25.20;99.90
10051;DHT22;5065;46.942;7.432;2023-07-13T14:04:55;25.20;99.90
10051;DHT22;5065;46.942;7.432;2023-07-13T14:07:23;25.10;99.90
10051;DHT22;5065;46.942;7.432;2023-07-13T14:09:51;25.10;99.90
10051;DHT22;5065;46.942;7.432;2023-07-13T14:12:18;25.10;99.90
10051;DHT22;5065;46.942;7.432;2023-07-13T14:14:47;25.20;99.90
10051;DHT22;5065;46.942;7.432;2023-07-13T14:17:19;25.20;99.90
10051;DHT22;5065;46.942;7.432;2023-07-13T14:19:50;25.30;99.90
10051;DHT22;5065;46.942;7.432;2023-07-13T14:22:22;25.30;99.90
10051;DHT22;5065;46.942;7.432;2023-07-13T14:24:51;25.30;99.90
10051;DHT22;5065;46.942;7.432;2023-07-13T14:27:19;25.40;99.90
10051;DHT22;5065;46.942;7.432;2023-07-13T14:29:46;25.40;99.90
10051;DHT22;5065;46.942;7.432;2023-07-13T14:32:13;25.40;99.90
10051;DHT22;5065;46.942;7.432;2023-07-13T14:34:41;25.40;99.90
10051;DHT22;5065;46.942;7.432;2023-07-13T14:37:14;25.40;99.90
10051;DHT22;5065;46.942;7.432;2023-07-13T14:39:43;25.40;99.90
10051;DHT22;5065;46.942;7.432;2023-07-13T14:42:11;25.40;99.90
10051;DHT22;5065;46.942;7.432;2023-07-13T14:44:38;25.40;99.90
10051;DHT22;5065;46.942;7.432;2023-07-13T14:47:06;25.40;99.90
10051;DHT22;5065;46.942;7.432;2023-07-13T14:49:36;25.40;99.90
10051;DHT22;5065;46.942;7.432;2023-07-13T14:52:11;25.40;99.90
10051;DHT22;5065;46.942;7.432;2023-07-13T14:54:40;25.40;99.90
10051;DHT22;5065;46.942;7.432;2023-07-13T14:57:13;25.40;99.90
10051;DHT22;5065;46.942;7.432;2023-07-13T14:59:41;25.40;99.90
10051;DHT22;5065;46.942;7.432;2023-07-13T15:02:27;25.30;99.90
10051;DHT22;5065;46.942;7.432;2023-07-13T15:04:59;25.30;99.90
10051;DHT22;5065;46.942;7.432;2023-07-13T15:07:28;25.30;99.90
10051;DHT22;5065;46.942;7.432;2023-07-13T15:09:56;25.30;99.90
10051;DHT22;5065;46.942;7.432;2023-07-13T15:12:24;25.30;99.90
10051;DHT22;5065;46.942;7.432;2023-07-13T15:14:53;25.30;99.90
10051;DHT22;5065;46.942;7.432;2023-07-13T15:17:31;25.30;99.90
10051;DHT22;5065;46.942;7.432;2023-07-13T15:20:00;25.20;99.90
10051;DHT22;5065;46.942;7.432;2023-07-13T15:22:27;25.20;99.90
10051;DHT22;5065;46.942;7.432;2023-07-13T15:24:56;25.20;99.90
10051;DHT22;5065;46.942;7.432;2023-07-13T15:27:25;25.20;99.90
10051;DHT22;5065;46.942;7.432;2023-07-13T15:29:52;25.10;99.90
10051;DHT22;5065;46.942;7.432;2023-07-13T15:32:19;25.10;99.90
10051;DHT22;5065;46.942;7.432;2023-07-13T15:34:47;25.10;99.90
10051;DHT22;5065;46.942;7.432;2023-07-13T15:37:15;25.10;99.90
10051;DHT22;5065;46.942;7.432;2023-07-13T15:39:42;25.10;99.90
10051;DHT22;5065;46.942;7.432;2023-07-13T15:42:16;25.10;99.90
10051;DHT22;5065;46.942;7.432;2023-07-13T15:44:44;25.10;99.90
10051;DHT22;5065;46.942;7.432;2023-07-13T15:47:12;25.10;99.90
10051;DHT22;5065;46.942;7.432;2023-07-13T15:49:40;25.10;99.90
10051;DHT22;5065;46.942;7.432;2023-07-13T15:52:15;25.10;99.90
10051;DHT22;5065;46.942;7.432;2023-07-13T15:54:43;25.10;99.90
10051;DHT22;5065;46.942;7.432;2023-07-13T15:57:11;25.00;99.90
10051;DHT22;5065;46.942;7.432;2023-07-13T15:59:44;25.00;99.90
10051;DHT22;5065;46.942;7.432;2023-07-13T16:02:17;25.00;99.90